createdAt,value
2023-03-23T15:58:51.396Z,1.95
2023-03-23T16:02:04.275Z,1.70
2023-03-23T16:05:16.939Z,1.80
2023-03-23T16:08:29.315Z,2.10
2023-03-23T16:11:42.275Z,1.95
2023-03-23T16:14:54.613Z,2.10
2023-03-23T16:18:07.332Z,2.10
2023-03-23T16:21:19.681Z,1.83
2023-03-23T16:24:32.549Z,1.98
2023-03-23T16:27:51.285Z,2.53
2023-03-23T16:31:05.004Z,3.92
2023-03-23T16:34:17.401Z,2.60
2023-03-23T16:37:33.377Z,2.22
2023-03-23T16:40:46.715Z,2.20
2023-03-23T16:43:59.350Z,2.28
2023-03-23T16:47:11.925Z,2.75
2023-03-23T16:50:24.551Z,2.25
2023-03-23T16:53:37.726Z,2.30
2023-03-23T16:56:50.499Z,2.10
2023-03-23T17:00:06.036Z,2.20
2023-03-23T17:03:19.472Z,3.10
2023-03-23T17:06:31.941Z,4.62
2023-03-23T17:09:44.557Z,9.20
2023-03-23T17:12:56.897Z,14.18
2023-03-23T17:16:09.661Z,11.23
2023-03-23T17:19:22.062Z,13.45
2023-03-23T17:22:34.686Z,37.40
2023-03-23T17:25:47.334Z,31.00
2023-03-23T17:29:01.126Z,16.20
2023-03-23T17:32:13.840Z,6.85
2023-03-23T17:35:26.425Z,6.20
2023-03-23T17:38:38.775Z,9.57
2023-03-23T17:41:51.418Z,7.07
2023-03-23T17:45:04.945Z,8.18
2023-03-23T17:48:17.603Z,8.73
2023-03-23T17:51:29.940Z,8.48
2023-03-23T17:54:42.544Z,12.18
2023-03-23T17:57:54.880Z,21.92
2023-03-23T18:01:07.609Z,17.83
2023-03-23T18:04:20.314Z,9.80
2023-03-23T18:07:32.657Z,8.45
2023-03-23T18:10:45.288Z,7.65
2023-03-23T18:13:57.712Z,7.57
2023-03-23T18:17:10.401Z,8.95
2023-03-23T18:20:22.940Z,9.85
2023-03-23T18:23:43.084Z,11.43
2023-03-23T18:27:02.250Z,13.95
2023-03-23T18:30:14.926Z,16.62
2023-03-23T18:33:27.291Z,12.75
2023-03-23T18:36:39.891Z,9.30
2023-03-23T18:39:53.636Z,11.77
2023-03-23T18:43:06.575Z,10.85
2023-03-23T18:46:18.986Z,14.50
2023-03-23T18:49:33.636Z,19.15
2023-03-23T18:52:46.183Z,16.40
2023-03-23T18:56:23.989Z,13.98
2023-03-23T18:59:37.066Z,12.57
2023-03-23T19:02:52.061Z,13.88
2023-03-23T19:06:06.076Z,19.92
2023-03-23T19:09:19.199Z,16.87
2023-03-23T19:12:32.105Z,16.92
2023-03-23T19:15:44.872Z,16.75
2023-03-23T19:18:57.345Z,16.12
2023-03-23T19:22:10.005Z,13.55
2023-03-23T19:25:22.615Z,12.25
2023-03-23T19:31:51.088Z,12.13
2023-03-23T19:35:04.119Z,14.07
2023-03-23T19:38:17.744Z,13.82
2023-03-23T19:41:31.158Z,16.35
2023-03-23T19:44:43.550Z,15.93
2023-03-23T19:47:56.333Z,16.35
2023-03-23T19:51:09.353Z,16.95
2023-03-23T19:54:22.489Z,15.82
2023-03-23T19:57:35.251Z,16.98
2023-03-23T20:00:48.635Z,19.33
2023-03-23T20:04:04.944Z,19.73
2023-03-23T20:07:17.560Z,20.42
2023-03-23T20:10:30.557Z,19.62
2023-03-23T20:13:43.313Z,18.67
2023-03-23T20:16:56.108Z,18.42
2023-03-23T20:20:10.443Z,16.80
2023-03-23T20:23:23.387Z,16.30
2023-03-23T20:26:38.888Z,17.02
2023-03-23T20:29:53.551Z,17.77
2023-03-23T20:33:05.953Z,15.90
2023-03-23T20:36:20.029Z,16.40
2023-03-23T20:39:32.960Z,15.85
2023-03-23T20:42:45.601Z,15.30
2023-03-23T20:46:00.993Z,14.68
2023-03-23T20:49:14.058Z,14.87
2023-03-23T20:52:26.414Z,15.38
2023-03-23T20:55:39.020Z,15.05
2023-03-23T20:58:51.396Z,17.83
2023-03-23T21:02:05.483Z,20.33
2023-03-23T21:05:17.791Z,17.80
2023-03-23T21:08:30.762Z,15.02
2023-03-23T21:11:43.506Z,12.98
2023-03-23T21:14:56.156Z,12.13
2023-03-23T21:18:08.827Z,11.82
2023-03-23T21:21:21.825Z,14.15
2023-03-23T21:24:38.593Z,22.27
2023-03-23T21:27:52.215Z,24.83
2023-03-23T21:31:06.026Z,33.35
2023-03-23T21:34:18.708Z,21.30
2023-03-23T21:37:31.046Z,16.55
2023-03-23T21:40:43.915Z,13.98
2023-03-23T21:43:56.718Z,14.35
2023-03-23T21:47:10.844Z,15.50
2023-03-23T21:50:24.334Z,21.52
2023-03-23T21:53:37.146Z,23.67
2023-03-23T21:56:49.724Z,25.37
2023-03-23T22:00:02.417Z,26.52
2023-03-23T22:03:19.176Z,24.10
2023-03-23T22:06:34.391Z,20.40
2023-03-23T22:09:46.779Z,18.62
2023-03-23T22:12:59.476Z,19.42
2023-03-23T22:16:17.756Z,18.60
2023-03-23T22:19:31.342Z,16.85
2023-03-23T22:22:43.766Z,16.48
2023-03-23T22:25:57.118Z,16.70
2023-03-23T22:29:11.317Z,14.85
2023-03-23T22:32:24.293Z,15.75
2023-03-23T22:35:36.789Z,12.90
2023-03-23T22:38:49.701Z,13.18
2023-03-23T22:42:02.112Z,14.32
2023-03-23T22:45:14.833Z,14.00
2023-03-23T22:48:27.517Z,12.77
2023-03-23T22:51:40.680Z,12.98
2023-03-23T22:54:53.543Z,13.15
2023-03-23T22:58:06.254Z,13.90
2023-03-23T23:01:19.887Z,12.88
2023-03-23T23:04:33.238Z,12.30
2023-03-23T23:07:45.686Z,12.27
2023-03-23T23:11:01.272Z,12.88
2023-03-23T23:14:13.686Z,12.18
2023-03-23T23:17:26.699Z,12.80
2023-03-23T23:20:39.455Z,12.50
2023-03-23T23:23:52.557Z,12.02
2023-03-23T23:27:04.974Z,11.55
2023-03-23T23:30:17.802Z,11.85
2023-03-23T23:33:30.264Z,11.35
2023-03-23T23:36:43.019Z,11.15
2023-03-23T23:39:55.693Z,12.10
2023-03-23T23:43:09.748Z,11.75
2023-03-23T23:46:22.489Z,11.90
2023-03-23T23:49:35.395Z,11.55
2023-03-23T23:52:50.145Z,11.88
2023-03-23T23:56:03.624Z,12.02
2023-03-23T23:59:16.312Z,11.80
